TimeEDT,TemperatureF,Dew PointF,Humidity,Sea Level PressureIn,VisibilityMPH,Wind Direction,Wind SpeedMPH,Gust SpeedMPH,PrecipitationIn,Events,Conditions,WindDirDegrees,DateUTC
12:35 AM,50.9,49.5,95,29.97,10.0,Calm,Calm,-,N/A,,Overcast,0,2013-05-22 04:35:00
12:55 AM,50.9,49.3,94,29.96,10.0,Calm,Calm,-,N/A,,Overcast,0,2013-05-22 04:55:00
1:15 AM,50.9,49.3,94,29.96,10.0,Calm,Calm,-,N/A,,Overcast,0,2013-05-22 05:15:00
1:35 AM,50.9,49.3,94,29.95,10.0,Calm,Calm,-,N/A,,Overcast,0,2013-05-22 05:35:00
1:55 AM,50.9,49.3,94,29.98,10.0,Calm,Calm,-,N/A,,Overcast,0,2013-05-22 05:55:00
2:15 AM,50.9,49.1,94,29.96,10.0,ESE,3.5,-,N/A,Rain,Light Rain,120,2013-05-22 06:15:00
2:35 AM,50.9,49.3,94,29.95,10.0,Calm,Calm,-,N/A,Rain,Light Rain,0,2013-05-22 06:35:00
2:55 AM,50.9,49.1,94,29.94,10.0,ESE,3.5,-,0.03,Rain,Rain,110,2013-05-22 06:55:00
3:15 AM,50.5,49.1,95,29.94,7.0,Calm,Calm,-,0.04,Rain,Rain,0,2013-05-22 07:15:00
6:15 AM,50.7,49.5,95,29.92,10.0,Calm,Calm,-,N/A,,Overcast,0,2013-05-22 10:15:00
6:35 AM,50.7,49.5,95,29.93,5.0,Calm,Calm,-,N/A,,Overcast,0,2013-05-22 10:35:00
6:55 AM,50.5,49.3,95,29.92,3.0,Calm,Calm,-,N/A,,Overcast,0,2013-05-22 10:55:00
7:15 AM,50.9,49.5,95,29.93,4.0,Calm,Calm,-,N/A,,Overcast,0,2013-05-22 11:15:00
7:35 AM,51.1,50.0,96,29.93,2.5,Calm,Calm,-,N/A,,Overcast,0,2013-05-22 11:35:00
7:55 AM,51.1,49.8,95,29.92,2.5,Calm,Calm,-,N/A,,Overcast,0,2013-05-22 11:55:00
8:15 AM,51.1,49.6,95,29.93,3.0,Calm,Calm,-,N/A,,Overcast,0,2013-05-22 12:15:00
8:35 AM,51.3,50.0,95,29.93,3.0,Calm,Calm,-,N/A,,Overcast,0,2013-05-22 12:35:00
8:55 AM,51.8,50.4,95,29.93,10.0,Calm,Calm,-,N/A,,Overcast,0,2013-05-22 12:55:00
9:15 AM,52.2,50.4,94,29.93,7.0,Calm,Calm,-,N/A,,Overcast,0,2013-05-22 13:15:00
9:35 AM,52.9,50.7,92,29.92,10.0,Calm,Calm,-,N/A,,Overcast,0,2013-05-22 13:35:00
9:55 AM,53.4,51.1,92,29.92,10.0,Calm,Calm,-,N/A,,Overcast,0,2013-05-22 13:55:00
10:15 AM,53.8,50.9,90,29.92,10.0,Calm,Calm,-,N/A,,Overcast,0,2013-05-22 14:15:00
10:35 AM,54.7,51.3,88,29.93,-9999.0,Calm,Calm,-,N/A,,Overcast,0,2013-05-22 14:35:00
10:55 AM,55.2,51.4,87,29.93,10.0,Calm,Calm,-,N/A,,Overcast,0,2013-05-22 14:55:00
11:15 AM,55.4,51.4,87,29.94,10.0,Calm,Calm,-,N/A,,Overcast,0,2013-05-22 15:15:00
11:35 AM,55.9,52.0,87,29.94,10.0,Calm,Calm,-,N/A,,Overcast,0,2013-05-22 15:35:00
11:55 AM,56.5,51.6,84,29.94,10.0,Calm,Calm,-,N/A,,Overcast,0,2013-05-22 15:55:00
12:15 PM,57.2,52.2,83,29.94,10.0,ESE,3.5,-,N/A,,Overcast,120,2013-05-22 16:15:00
12:35 PM,57.7,52.9,84,29.94,10.0,Calm,Calm,-,N/A,,Overcast,0,2013-05-22 16:35:00
12:55 PM,58.5,53.4,83,29.93,10.0,ESE,4.6,-,N/A,,Overcast,110,2013-05-22 16:55:00
1:15 PM,59.7,54.3,82,29.92,10.0,ESE,4.6,-,N/A,,Overcast,110,2013-05-22 17:15:00
1:35 PM,60.1,54.1,81,29.92,10.0,Calm,Calm,-,N/A,,Overcast,0,2013-05-22 17:35:00
1:55 PM,60.3,54.3,81,29.92,10.0,ESE,8.1,-,N/A,,Overcast,110,2013-05-22 17:55:00
2:15 PM,59.9,54.5,82,29.91,10.0,ESE,8.1,-,N/A,,Overcast,120,2013-05-22 18:15:00
2:35 PM,59.4,54.3,83,29.92,10.0,ESE,4.6,-,N/A,,Overcast,110,2013-05-22 18:35:00
2:55 PM,60.1,54.9,83,29.91,10.0,East,5.8,-,N/A,,Overcast,90,2013-05-22 18:55:00
3:15 PM,60.3,55.2,83,29.91,10.0,East,5.8,-,N/A,,Overcast,90,2013-05-22 19:15:00
3:35 PM,59.9,54.9,83,29.91,10.0,ENE,5.8,-,N/A,,Overcast,70,2013-05-22 19:35:00
3:55 PM,59.9,54.7,83,29.92,10.0,East,4.6,-,N/A,,Overcast,80,2013-05-22 19:55:00
4:15 PM,59.9,54.7,83,29.91,10.0,East,5.8,-,N/A,,Overcast,90,2013-05-22 20:15:00
4:35 PM,60.3,55.4,84,29.90,10.0,East,4.6,-,N/A,,Overcast,90,2013-05-22 20:35:00
4:55 PM,59.2,55.0,86,29.91,10.0,ESE,5.8,-,N/A,,Overcast,110,2013-05-22 20:55:00
5:15 PM,59.0,55.0,87,29.91,10.0,ESE,4.6,-,N/A,,Overcast,110,2013-05-22 21:15:00
5:35 PM,58.6,55.4,89,29.91,10.0,Calm,Calm,-,N/A,,Overcast,0,2013-05-22 21:35:00
5:55 PM,58.1,55.6,91,29.91,5.0,East,3.5,-,0.04,Rain,Rain,90,2013-05-22 21:55:00
6:15 PM,57.6,55.8,94,29.91,2.5,Calm,Calm,-,0.09,Rain,Heavy Rain,0,2013-05-22 22:15:00
6:35 PM,57.6,55.9,94,29.91,5.0,Calm,Calm,-,0.14,Rain,Light Rain,0,2013-05-22 22:35:00
6:55 PM,57.6,55.8,94,29.91,4.0,East,5.8,-,0.19,Rain,Rain,80,2013-05-22 22:55:00
7:15 PM,57.4,55.6,94,29.92,10.0,East,3.5,-,N/A,,Overcast,100,2013-05-22 23:15:00
7:35 PM,57.4,55.6,94,29.93,10.0,East,4.6,-,N/A,,Overcast,100,2013-05-22 23:35:00
7:55 PM,57.2,55.2,93,29.93,10.0,ESE,3.5,-,N/A,,Overcast,110,2013-05-22 23:55:00
8:15 PM,56.8,54.7,92,29.93,10.0,East,6.9,-,N/A,,Overcast,90,2013-05-23 00:15:00
8:35 PM,56.3,54.3,93,29.93,10.0,ESE,4.6,-,N/A,,Overcast,120,2013-05-23 00:35:00
8:55 PM,56.3,54.0,92,29.94,10.0,ESE,3.5,-,N/A,,Overcast,110,2013-05-23 00:55:00
9:15 PM,55.9,54.0,93,29.94,10.0,East,4.6,-,N/A,,Overcast,100,2013-05-23 01:15:00
9:35 PM,55.4,53.2,92,29.95,10.0,SE,3.5,-,N/A,,Overcast,130,2013-05-23 01:35:00
9:55 PM,55.2,53.1,92,29.95,7.0,ESE,3.5,-,N/A,,Overcast,110,2013-05-23 01:55:00
10:15 PM,54.7,52.9,94,29.94,7.0,East,5.8,-,N/A,,Overcast,80,2013-05-23 02:15:00
10:35 PM,54.5,52.9,94,29.94,4.0,East,3.5,-,N/A,,Overcast,90,2013-05-23 02:35:00
10:55 PM,54.5,53.1,95,29.94,3.0,East,3.5,-,N/A,,Overcast,100,2013-05-23 02:55:00
11:15 PM,54.1,52.9,95,29.94,2.5,East,3.5,-,N/A,,Overcast,90,2013-05-23 03:15:00
11:35 PM,54.0,52.9,96,29.93,2.5,East,4.6,-,N/A,,Overcast,90,2013-05-23 03:35:00
11:55 PM,53.8,52.7,96,29.93,3.0,East,4.6,-,N/A,,Overcast,90,2013-05-23 03:55:00